BUCHANAN DAM (BUC)

Elevation: 450' · CHOWCHILLA R basin · Operator: US Army Corps of Engineers

Provisional data, subject to change.
Query executed Tuesday at 10:54:34   clock

Select a sensor type for a plot of data.
Note: Reservoir Flows are daily averages.

Earlier

Date RES ELE    STORAGE    RES CHG    TOC STO    ABV TOC    OUTFLOW    INFLOW    PPT INC    TEMP MN    TEMP MX   
 FEET   AF   AF   AF   AF   CFS   CFS   INCHES   DEG F   DEG F  
05/01/2016 520.19 54566 101 139240 -84674 1 60 -- 11 31
05/02/2016 520.26 54644 78 139848 -85204 1 49 -- 12 32
05/03/2016 520.33 54723 79 140519 -85796 1 47 -- 13 32
05/04/2016 520.41 54812 89 141184 -86372 0 50 -- 15 27
05/05/2016 520.48 54891 79 141843 -86952 0 44 -- 13 23
05/06/2016 520.53 54947 56 142379 -87432 0 32 -- 13 21
05/07/2016 520.62 55048 101 142913 -87865 0 55 -- 12 22
05/08/2016 520.70 55138 90 143538 -88400 0 50 -- 9 23
05/09/2016 520.78 55228 90 143997 -88769 0 53 -- 14 29
05/10/2016 520.85 55306 78 144487 -89181 0 48 -- 11 30
05/11/2016 520.90 55363 57 145063 -89700 0 37 -- 13 34
05/12/2016 520.96 55430 67 145616 -90186 0 43 -- 15 36
05/13/2016 521.01 55487 57 146254 -90767 0 38 -- 14 33
05/14/2016 521.03 55509 22 146885 -91376 0 19 -- 11 27
05/15/2016 521.07 55554 45 147512 -91958 0 31 -- 11 29
05/16/2016 521.09 55577 23 148091 -92514 0 20 -- 11 30
05/17/2016 521.12 55610 33 148648 -93038 0 26 -- 12 33
05/18/2016 521.15 0 34 148802 -93158 0 10 -- 16 35
05/19/2016 521.17 55667 23 148981 -93314 0 20 -- 13 31
05/20/2016 521.19 55686 116822 149147 -93462 0 16 -- 10 22
05/21/2016 521.18 55678 -8 149300 -149300 0 3 -- 5 23
05/22/2016 521.19 55689 55689 149441 -93752 0 13 -- 7 25
05/23/2016 521.20 55701 12 149570 -93869 0 13 -- 9 24
05/24/2016 521.21 55712 11 149678 -93966 0 14 -- 10 25
05/25/2016 521.24 55746 34 149777 -94031 0 25 -- 11 27
05/26/2016 521.24 55741 -102 149830 -94089 0 6 -- 10 29
05/27/2016 521.24 55751 116748 149844 -94093 0 14 -- 15 32
05/28/2016 521.33 55847 96 149898 -94051 0 58 -- 14 33
05/29/2016 521.34 55859 12 149958 -94099 0 16 -- 16 35
05/30/2016 521.37 55893 34 150000 -94107 0 27 -- 15 37
05/31/2016 -- -- -- -- -- -- -- -- -- --

Later | Latest

Warning! This data is preliminary and subject to revision.

Show BUC Map | Plot BUC Data | 1 Month BUC Data | Real-Time BUC Data | BUC Info